sensor_id;sensor_type;location;lat;lon;timestamp;P1;durP1;ratioP1;P2;durP2;ratioP2
5416;SDS011;2731;50.754;12.990;2022-07-23T05:56:31;7.55;;;6.72;;
5416;SDS011;2731;50.754;12.990;2022-07-23T05:58:56;8.55;;;6.93;;
5416;SDS011;2731;50.754;12.990;2022-07-23T06:01:21;11.53;;;8.17;;
5416;SDS011;2731;50.754;12.990;2022-07-23T06:03:46;8.80;;;7.30;;
5416;SDS011;2731;50.754;12.990;2022-07-23T06:06:12;7.03;;;6.10;;
5416;SDS011;2731;50.754;12.990;2022-07-23T06:08:37;8.83;;;7.33;;
5416;SDS011;2731;50.754;12.990;2022-07-23T06:11:02;6.47;;;5.88;;
5416;SDS011;2731;50.754;12.990;2022-07-23T06:13:27;11.00;;;7.70;;
5416;SDS011;2731;50.754;12.990;2022-07-23T06:15:53;7.78;;;7.03;;
5416;SDS011;2731;50.754;12.990;2022-07-23T06:18:18;9.53;;;7.07;;
5416;SDS011;2731;50.754;12.990;2022-07-23T06:20:43;9.93;;;7.67;;
5416;SDS011;2731;50.754;12.990;2022-07-23T06:23:08;8.60;;;7.73;;
5416;SDS011;2731;50.754;12.990;2022-07-23T06:25:34;8.15;;;7.30;;
5416;SDS011;2731;50.754;12.990;2022-07-23T06:27:59;12.40;;;8.93;;
5416;SDS011;2731;50.754;12.990;2022-07-23T06:30:25;9.88;;;7.53;;
5416;SDS011;2731;50.754;12.990;2022-07-23T06:32:50;12.27;;;7.80;;
5416;SDS011;2731;50.754;12.990;2022-07-23T06:35:15;14.23;;;9.47;;
5416;SDS011;2731;50.754;12.990;2022-07-23T06:37:41;11.63;;;9.40;;
5416;SDS011;2731;50.754;12.990;2022-07-23T06:40:06;11.55;;;9.02;;
5416;SDS011;2731;50.754;12.990;2022-07-23T06:42:32;9.38;;;8.48;;
5416;SDS011;2731;50.754;12.990;2022-07-23T06:44:57;10.52;;;9.43;;
5416;SDS011;2731;50.754;12.990;2022-07-23T06:47:22;9.80;;;8.80;;
5416;SDS011;2731;50.754;12.990;2022-07-23T06:49:48;10.00;;;9.00;;
5416;SDS011;2731;50.754;12.990;2022-07-23T06:52:13;12.65;;;11.35;;
5416;SDS011;2731;50.754;12.990;2022-07-23T06:54:38;11.98;;;9.98;;
5416;SDS011;2731;50.754;12.990;2022-07-23T06:57:04;10.80;;;9.40;;
5416;SDS011;2731;50.754;12.990;2022-07-23T06:59:29;14.70;;;10.20;;
5416;SDS011;2731;50.754;12.990;2022-07-23T07:01:54;10.23;;;9.13;;
5416;SDS011;2731;50.754;12.990;2022-07-23T07:04:19;9.87;;;8.87;;
5416;SDS011;2731;50.754;12.990;2022-07-23T07:06:45;12.90;;;9.90;;
5416;SDS011;2731;50.754;12.990;2022-07-23T07:09:10;10.00;;;9.00;;
5416;SDS011;2731;50.754;12.990;2022-07-23T07:11:35;12.87;;;9.47;;
5416;SDS011;2731;50.754;12.990;2022-07-23T07:14:00;11.02;;;9.88;;
5416;SDS011;2731;50.754;12.990;2022-07-23T07:16:26;13.23;;;9.23;;
5416;SDS011;2731;50.754;12.990;2022-07-23T07:18:51;11.57;;;9.13;;
5416;SDS011;2731;50.754;12.990;2022-07-23T07:21:16;10.83;;;9.67;;
5416;SDS011;2731;50.754;12.990;2022-07-23T07:23:41;12.20;;;10.87;;
5416;SDS011;2731;50.754;12.990;2022-07-23T07:26:07;11.40;;;9.50;;
5416;SDS011;2731;50.754;12.990;2022-07-23T07:28:32;13.03;;;10.03;;
5416;SDS011;2731;50.754;12.990;2022-07-23T07:30:57;10.50;;;9.40;;
5416;SDS011;2731;50.754;12.990;2022-07-23T07:33:22;12.50;;;9.70;;
5416;SDS011;2731;50.754;12.990;2022-07-23T07:35:48;11.00;;;9.82;;
5416;SDS011;2731;50.754;12.990;2022-07-23T07:38:13;10.87;;;9.70;;
5416;SDS011;2731;50.754;12.990;2022-07-23T07:40:38;12.20;;;9.97;;
5416;SDS011;2731;50.754;12.990;2022-07-23T07:43:03;11.15;;;9.70;;
5416;SDS011;2731;50.754;12.990;2022-07-23T07:45:29;10.67;;;9.33;;
5416;SDS011;2731;50.754;12.990;2022-07-23T07:47:54;12.02;;;9.95;;
5416;SDS011;2731;50.754;12.990;2022-07-23T07:50:20;10.20;;;9.13;;
5416;SDS011;2731;50.754;12.990;2022-07-23T07:52:45;13.27;;;11.65;;
5416;SDS011;2731;50.754;12.990;2022-07-23T07:55:10;11.30;;;10.13;;
5416;SDS011;2731;50.754;12.990;2022-07-23T07:57:36;12.02;;;10.18;;
5416;SDS011;2731;50.754;12.990;2022-07-23T08:00:02;17.55;;;13.52;;
5416;SDS011;2731;50.754;12.990;2022-07-23T08:02:27;13.73;;;12.18;;
5416;SDS011;2731;50.754;12.990;2022-07-23T08:04:53;13.43;;;12.03;;
5416;SDS011;2731;50.754;12.990;2022-07-23T08:07:18;15.93;;;12.95;;
5416;SDS011;2731;50.754;12.990;2022-07-23T08:09:43;13.25;;;11.85;;
5416;SDS011;2731;50.754;12.990;2022-07-23T08:12:09;12.80;;;11.40;;
5416;SDS011;2731;50.754;12.990;2022-07-23T08:14:37;12.40;;;11.00;;
5416;SDS011;2731;50.754;12.990;2022-07-23T08:17:02;10.57;;;9.43;;
5416;SDS011;2731;50.754;12.990;2022-07-23T08:19:28;13.13;;;11.07;;
5416;SDS011;2731;50.754;12.990;2022-07-23T08:21:53;12.83;;;10.93;;
5416;SDS011;2731;50.754;12.990;2022-07-23T08:24:18;10.27;;;9.17;;
5416;SDS011;2731;50.754;12.990;2022-07-23T08:26:44;13.03;;;11.63;;
5416;SDS011;2731;50.754;12.990;2022-07-23T08:29:09;11.70;;;9.67;;
5416;SDS011;2731;50.754;12.990;2022-07-23T08:31:34;10.52;;;9.43;;
5416;SDS011;2731;50.754;12.990;2022-07-23T08:34:00;10.20;;;9.15;;
5416;SDS011;2731;50.754;12.990;2022-07-23T08:36:25;13.43;;;10.70;;
5416;SDS011;2731;50.754;12.990;2022-07-23T08:38:52;12.82;;;10.60;;
5416;SDS011;2731;50.754;12.990;2022-07-23T08:41:18;10.85;;;9.75;;
5416;SDS011;2731;50.754;12.990;2022-07-23T08:43:43;12.30;;;10.57;;
5416;SDS011;2731;50.754;12.990;2022-07-23T08:46:09;11.20;;;10.00;;
5416;SDS011;2731;50.754;12.990;2022-07-23T08:48:35;11.35;;;9.85;;
5416;SDS011;2731;50.754;12.990;2022-07-23T08:51:02;10.30;;;9.20;;
5416;SDS011;2731;50.754;12.990;2022-07-23T08:53:28;11.63;;;10.43;;
5416;SDS011;2731;50.754;12.990;2022-07-23T08:55:56;12.35;;;10.57;;
5416;SDS011;2731;50.754;12.990;2022-07-23T08:58:21;13.27;;;11.85;;
5416;SDS011;2731;50.754;12.990;2022-07-23T09:00:47;11.23;;;10.02;;
5416;SDS011;2731;50.754;12.990;2022-07-23T09:03:16;12.05;;;9.95;;
5416;SDS011;2731;50.754;12.990;2022-07-23T09:05:42;10.60;;;9.50;;
5416;SDS011;2731;50.754;12.990;2022-07-23T09:08:11;14.13;;;9.75;;
5416;SDS011;2731;50.754;12.990;2022-07-23T09:11:11;12.27;;;10.65;;
5416;SDS011;2731;50.754;12.990;2022-07-23T09:15:58;11.20;;;10.10;;
5416;SDS011;2731;50.754;12.990;2022-07-23T09:18:30;11.07;;;9.90;;
5416;SDS011;2731;50.754;12.990;2022-07-23T09:23:55;12.52;;;9.40;;
5416;SDS011;2731;50.754;12.990;2022-07-23T09:26:42;9.48;;;8.38;;
5416;SDS011;2731;50.754;12.990;2022-07-23T09:29:20;11.80;;;9.32;;
5416;SDS011;2731;50.754;12.990;2022-07-23T09:31:49;10.73;;;9.35;;
5416;SDS011;2731;50.754;12.990;2022-07-23T09:36:43;12.18;;;10.57;;
5416;SDS011;2731;50.754;12.990;2022-07-23T09:39:08;10.25;;;8.98;;
5416;SDS011;2731;50.754;12.990;2022-07-23T09:41:39;11.20;;;8.48;;
5416;SDS011;2731;50.754;12.990;2022-07-23T09:44:19;10.40;;;9.37;;
5416;SDS011;2731;50.754;12.990;2022-07-23T09:46:46;11.65;;;9.95;;
5416;SDS011;2731;50.754;12.990;2022-07-23T09:51:43;13.02;;;9.45;;
5416;SDS011;2731;50.754;12.990;2022-07-23T09:54:19;9.70;;;8.43;;
5416;SDS011;2731;50.754;12.990;2022-07-23T09:56:45;10.98;;;7.93;;
5416;SDS011;2731;50.754;12.990;2022-07-23T09:59:11;8.80;;;7.93;;
5416;SDS011;2731;50.754;12.990;2022-07-23T10:01:37;10.40;;;7.82;;
5416;SDS011;2731;50.754;12.990;2022-07-23T10:04:03;9.73;;;7.53;;
5416;SDS011;2731;50.754;12.990;2022-07-23T10:06:28;8.75;;;7.63;;
5416;SDS011;2731;50.754;12.990;2022-07-23T10:08:54;9.00;;;7.47;;
5416;SDS011;2731;50.754;12.990;2022-07-23T10:11:23;9.20;;;7.22;;
5416;SDS011;2731;50.754;12.990;2022-07-23T10:13:48;8.25;;;7.15;;
5416;SDS011;2731;50.754;12.990;2022-07-23T10:16:14;15.20;;;7.45;;
5416;SDS011;2731;50.754;12.990;2022-07-23T10:18:39;10.27;;;9.27;;
5416;SDS011;2731;50.754;12.990;2022-07-23T10:21:05;8.25;;;7.45;;
5416;SDS011;2731;50.754;12.990;2022-07-23T10:23:33;7.78;;;6.97;;
5416;SDS011;2731;50.754;12.990;2022-07-23T10:26:05;7.57;;;6.63;;
5416;SDS011;2731;50.754;12.990;2022-07-23T10:31:21;8.40;;;7.05;;
5416;SDS011;2731;50.754;12.990;2022-07-23T10:33:54;7.80;;;6.43;;
5416;SDS011;2731;50.754;12.990;2022-07-23T10:36:28;8.05;;;7.25;;
5416;SDS011;2731;50.754;12.990;2022-07-23T10:39:03;11.15;;;8.23;;
5416;SDS011;2731;50.754;12.990;2022-07-23T10:41:36;10.30;;;7.90;;
5416;SDS011;2731;50.754;12.990;2022-07-23T10:46:33;8.77;;;6.80;;
5416;SDS011;2731;50.754;12.990;2022-07-23T10:49:29;7.60;;;6.80;;
5416;SDS011;2731;50.754;12.990;2022-07-23T10:57:30;7.57;;;5.75;;
5416;SDS011;2731;50.754;12.990;2022-07-23T11:02:31;9.20;;;7.43;;
5416;SDS011;2731;50.754;12.990;2022-07-23T11:05:39;7.10;;;6.18;;
5416;SDS011;2731;50.754;12.990;2022-07-23T11:10:45;10.73;;;6.35;;
5416;SDS011;2731;50.754;12.990;2022-07-23T11:31:54;7.25;;;6.30;;
5416;SDS011;2731;50.754;12.990;2022-07-23T11:37:04;7.97;;;6.20;;
5416;SDS011;2731;50.754;12.990;2022-07-23T11:39:33;9.57;;;7.75;;
5416;SDS011;2731;50.754;12.990;2022-07-23T11:42:01;6.57;;;5.80;;
5416;SDS011;2731;50.754;12.990;2022-07-23T11:44:28;9.65;;;7.25;;
5416;SDS011;2731;50.754;12.990;2022-07-23T11:46:57;9.02;;;6.53;;
5416;SDS011;2731;50.754;12.990;2022-07-23T11:49:22;7.10;;;6.40;;
5416;SDS011;2731;50.754;12.990;2022-07-23T11:52:03;8.45;;;6.78;;
5416;SDS011;2731;50.754;12.990;2022-07-23T11:54:32;13.35;;;7.18;;
5416;SDS011;2731;50.754;12.990;2022-07-23T11:56:58;11.68;;;7.20;;
5416;SDS011;2731;50.754;12.990;2022-07-23T11:59:24;10.90;;;6.75;;
5416;SDS011;2731;50.754;12.990;2022-07-23T12:02:00;7.88;;;6.95;;
5416;SDS011;2731;50.754;12.990;2022-07-23T12:04:42;9.15;;;7.63;;
5416;SDS011;2731;50.754;12.990;2022-07-23T12:09:33;11.18;;;7.85;;
5416;SDS011;2731;50.754;12.990;2022-07-23T12:11:59;7.45;;;6.75;;
5416;SDS011;2731;50.754;12.990;2022-07-23T12:14:24;7.90;;;6.68;;
5416;SDS011;2731;50.754;12.990;2022-07-23T12:17:08;8.38;;;7.00;;
5416;SDS011;2731;50.754;12.990;2022-07-23T12:19:34;9.00;;;6.68;;
5416;SDS011;2731;50.754;12.990;2022-07-23T12:21:59;9.75;;;7.78;;
5416;SDS011;2731;50.754;12.990;2022-07-23T12:24:24;9.38;;;6.93;;
5416;SDS011;2731;50.754;12.990;2022-07-23T12:29:35;9.32;;;7.18;;
5416;SDS011;2731;50.754;12.990;2022-07-23T12:32:01;9.38;;;7.25;;
5416;SDS011;2731;50.754;12.990;2022-07-23T12:34:26;7.50;;;6.80;;
5416;SDS011;2731;50.754;12.990;2022-07-23T12:36:52;9.48;;;7.57;;
5416;SDS011;2731;50.754;12.990;2022-07-23T12:39:30;9.07;;;7.40;;
5416;SDS011;2731;50.754;12.990;2022-07-23T12:41:55;10.27;;;6.70;;
5416;SDS011;2731;50.754;12.990;2022-07-23T12:44:21;9.55;;;7.28;;
5416;SDS011;2731;50.754;12.990;2022-07-23T12:46:49;7.88;;;6.82;;
5416;SDS011;2731;50.754;12.990;2022-07-23T12:49:24;10.50;;;7.20;;
5416;SDS011;2731;50.754;12.990;2022-07-23T12:51:50;10.57;;;7.70;;
5416;SDS011;2731;50.754;12.990;2022-07-23T12:54:15;7.97;;;6.87;;
5416;SDS011;2731;50.754;12.990;2022-07-23T12:56:40;9.60;;;7.70;;
5416;SDS011;2731;50.754;12.990;2022-07-23T12:59:13;9.77;;;8.27;;
5416;SDS011;2731;50.754;12.990;2022-07-23T13:01:42;10.35;;;7.20;;
5416;SDS011;2731;50.754;12.990;2022-07-23T13:04:13;9.95;;;7.85;;
5416;SDS011;2731;50.754;12.990;2022-07-23T13:06:40;8.75;;;7.70;;
5416;SDS011;2731;50.754;12.990;2022-07-23T13:09:09;8.07;;;6.93;;
5416;SDS011;2731;50.754;12.990;2022-07-23T13:11:35;10.85;;;8.40;;
5416;SDS011;2731;50.754;12.990;2022-07-23T13:14:00;12.20;;;7.80;;
5416;SDS011;2731;50.754;12.990;2022-07-23T13:16:26;11.27;;;8.70;;
5416;SDS011;2731;50.754;12.990;2022-07-23T13:18:52;10.55;;;7.45;;
5416;SDS011;2731;50.754;12.990;2022-07-23T13:21:17;10.10;;;8.77;;
5416;SDS011;2731;50.754;12.990;2022-07-23T13:23:43;9.85;;;8.02;;
5416;SDS011;2731;50.754;12.990;2022-07-23T13:26:08;8.63;;;7.73;;
5416;SDS011;2731;50.754;12.990;2022-07-23T13:28:36;9.32;;;8.30;;
5416;SDS011;2731;50.754;12.990;2022-07-23T13:31:01;9.60;;;8.67;;
5416;SDS011;2731;50.754;12.990;2022-07-23T13:33:26;10.23;;;9.23;;
5416;SDS011;2731;50.754;12.990;2022-07-23T13:35:52;10.03;;;9.03;;
5416;SDS011;2731;50.754;12.990;2022-07-23T13:38:18;11.68;;;9.52;;
5416;SDS011;2731;50.754;12.990;2022-07-23T13:40:44;10.38;;;9.30;;
5416;SDS011;2731;50.754;12.990;2022-07-23T13:43:11;11.13;;;8.68;;
5416;SDS011;2731;50.754;12.990;2022-07-23T13:45:37;10.13;;;9.00;;
5416;SDS011;2731;50.754;12.990;2022-07-23T13:48:02;11.27;;;8.65;;
5416;SDS011;2731;50.754;12.990;2022-07-23T13:50:28;10.90;;;9.80;;
5416;SDS011;2731;50.754;12.990;2022-07-23T13:52:53;9.40;;;8.45;;
5416;SDS011;2731;50.754;12.990;2022-07-23T13:55:19;12.18;;;10.95;;
5416;SDS011;2731;50.754;12.990;2022-07-23T13:57:44;12.13;;;10.57;;
5416;SDS011;2731;50.754;12.990;2022-07-23T14:00:12;10.57;;;9.57;;
5416;SDS011;2731;50.754;12.990;2022-07-23T14:02:38;11.07;;;9.77;;
5416;SDS011;2731;50.754;12.990;2022-07-23T14:05:07;11.35;;;9.73;;
5416;SDS011;2731;50.754;12.990;2022-07-23T14:07:34;9.90;;;8.90;;
5416;SDS011;2731;50.754;12.990;2022-07-23T14:09:59;9.30;;;8.40;;
5416;SDS011;2731;50.754;12.990;2022-07-23T14:12:24;14.77;;;9.20;;
5416;SDS011;2731;50.754;12.990;2022-07-23T14:14:50;9.88;;;8.63;;
5416;SDS011;2731;50.754;12.990;2022-07-23T14:17:15;12.88;;;9.43;;
5416;SDS011;2731;50.754;12.990;2022-07-23T14:19:40;10.32;;;8.85;;
5416;SDS011;2731;50.754;12.990;2022-07-23T14:22:06;13.05;;;9.10;;
5416;SDS011;2731;50.754;12.990;2022-07-23T14:24:31;12.53;;;10.00;;
5416;SDS011;2731;50.754;12.990;2022-07-23T14:26:56;10.83;;;9.70;;
5416;SDS011;2731;50.754;12.990;2022-07-23T14:29:21;10.67;;;9.57;;
5416;SDS011;2731;50.754;12.990;2022-07-23T14:31:46;12.27;;;10.03;;
5416;SDS011;2731;50.754;12.990;2022-07-23T14:34:13;11.73;;;9.73;;
5416;SDS011;2731;50.754;12.990;2022-07-23T14:36:38;11.52;;;9.60;;
5416;SDS011;2731;50.754;12.990;2022-07-23T14:39:07;9.97;;;9.00;;
5416;SDS011;2731;50.754;12.990;2022-07-23T14:41:34;10.55;;;9.43;;
5416;SDS011;2731;50.754;12.990;2022-07-23T14:43:59;10.00;;;8.82;;
5416;SDS011;2731;50.754;12.990;2022-07-23T14:46:25;14.13;;;9.25;;
5416;SDS011;2731;50.754;12.990;2022-07-23T14:48:50;9.60;;;8.68;;
5416;SDS011;2731;50.754;12.990;2022-07-23T14:51:16;9.15;;;8.15;;
5416;SDS011;2731;50.754;12.990;2022-07-23T14:53:41;9.77;;;8.70;;
5416;SDS011;2731;50.754;12.990;2022-07-23T14:56:07;9.98;;;9.07;;
5416;SDS011;2731;50.754;12.990;2022-07-23T14:58:33;11.27;;;9.85;;
5416;SDS011;2731;50.754;12.990;2022-07-23T15:00:58;10.57;;;9.57;;
5416;SDS011;2731;50.754;12.990;2022-07-23T15:03:24;10.90;;;9.77;;
5416;SDS011;2731;50.754;12.990;2022-07-23T15:05:50;10.10;;;9.13;;
5416;SDS011;2731;50.754;12.990;2022-07-23T15:08:15;10.40;;;9.40;;
5416;SDS011;2731;50.754;12.990;2022-07-23T15:13:07;10.90;;;9.75;;
5416;SDS011;2731;50.754;12.990;2022-07-23T15:15:32;13.15;;;11.10;;
5416;SDS011;2731;50.754;12.990;2022-07-23T15:18:00;12.20;;;11.05;;
5416;SDS011;2731;50.754;12.990;2022-07-23T15:20:25;12.73;;;11.53;;
5416;SDS011;2731;50.754;12.990;2022-07-23T15:22:50;13.02;;;11.15;;
5416;SDS011;2731;50.754;12.990;2022-07-23T15:25:18;12.77;;;11.37;;
5416;SDS011;2731;50.754;12.990;2022-07-23T15:27:44;11.93;;;10.82;;
5416;SDS011;2731;50.754;12.990;2022-07-23T15:30:09;11.60;;;10.40;;
5416;SDS011;2731;50.754;12.990;2022-07-23T15:32:34;11.57;;;10.38;;
5416;SDS011;2731;50.754;12.990;2022-07-23T15:35:00;11.43;;;10.27;;
5416;SDS011;2731;50.754;12.990;2022-07-23T15:37:25;11.85;;;10.68;;
5416;SDS011;2731;50.754;12.990;2022-07-23T15:39:50;13.13;;;11.90;;
5416;SDS011;2731;50.754;12.990;2022-07-23T15:42:16;12.00;;;10.80;;
5416;SDS011;2731;50.754;12.990;2022-07-23T15:44:41;12.63;;;11.32;;
5416;SDS011;2731;50.754;12.990;2022-07-23T15:47:11;13.20;;;11.90;;
5416;SDS011;2731;50.754;12.990;2022-07-23T15:49:36;13.02;;;11.82;;
5416;SDS011;2731;50.754;12.990;2022-07-23T15:52:01;12.90;;;11.70;;
5416;SDS011;2731;50.754;12.990;2022-07-23T15:54:26;12.80;;;11.50;;
5416;SDS011;2731;50.754;12.990;2022-07-23T15:56:52;12.80;;;11.50;;
5416;SDS011;2731;50.754;12.990;2022-07-23T15:59:17;13.20;;;11.52;;
5416;SDS011;2731;50.754;12.990;2022-07-23T16:01:42;12.13;;;10.93;;
5416;SDS011;2731;50.754;12.990;2022-07-23T16:04:10;13.00;;;11.70;;
5416;SDS011;2731;50.754;12.990;2022-07-23T16:06:38;12.30;;;10.40;;
5416;SDS011;2731;50.754;12.990;2022-07-23T16:09:06;12.88;;;11.63;;
5416;SDS011;2731;50.754;12.990;2022-07-23T16:11:31;12.83;;;11.43;;
5416;SDS011;2731;50.754;12.990;2022-07-23T16:13:56;11.80;;;10.60;;
5416;SDS011;2731;50.754;12.990;2022-07-23T16:16:22;12.38;;;10.63;;
5416;SDS011;2731;50.754;12.990;2022-07-23T16:18:49;12.63;;;10.77;;
5416;SDS011;2731;50.754;12.990;2022-07-23T16:21:16;11.77;;;10.63;;
5416;SDS011;2731;50.754;12.990;2022-07-23T16:23:41;13.85;;;11.52;;
5416;SDS011;2731;50.754;12.990;2022-07-23T16:26:06;11.87;;;10.30;;
5416;SDS011;2731;50.754;12.990;2022-07-23T16:28:32;11.70;;;10.55;;
5416;SDS011;2731;50.754;12.990;2022-07-23T16:30:57;12.65;;;11.45;;
5416;SDS011;2731;50.754;12.990;2022-07-23T16:33:23;12.30;;;10.77;;
5416;SDS011;2731;50.754;12.990;2022-07-23T16:35:48;13.30;;;12.03;;
5416;SDS011;2731;50.754;12.990;2022-07-23T16:38:13;12.10;;;10.43;;
5416;SDS011;2731;50.754;12.990;2022-07-23T16:40:41;12.68;;;11.38;;
5416;SDS011;2731;50.754;12.990;2022-07-23T16:43:06;12.00;;;10.80;;
5416;SDS011;2731;50.754;12.990;2022-07-23T16:45:31;12.03;;;9.97;;
5416;SDS011;2731;50.754;12.990;2022-07-23T16:47:57;11.67;;;10.53;;
5416;SDS011;2731;50.754;12.990;2022-07-23T16:50:24;11.93;;;10.73;;
5416;SDS011;2731;50.754;12.990;2022-07-23T16:52:49;10.57;;;9.45;;
5416;SDS011;2731;50.754;12.990;2022-07-23T16:55:17;20.90;;;16.53;;
5416;SDS011;2731;50.754;12.990;2022-07-23T16:57:42;13.48;;;12.07;;
5416;SDS011;2731;50.754;12.990;2022-07-23T17:00:07;11.03;;;9.93;;
5416;SDS011;2731;50.754;12.990;2022-07-23T17:02:35;10.38;;;9.27;;
5416;SDS011;2731;50.754;12.990;2022-07-23T17:05:00;9.37;;;8.47;;
5416;SDS011;2731;50.754;12.990;2022-07-23T17:07:25;10.10;;;9.10;;
5416;SDS011;2731;50.754;12.990;2022-07-23T17:09:51;9.77;;;8.70;;
5416;SDS011;2731;50.754;12.990;2022-07-23T17:12:16;9.63;;;8.65;;
5416;SDS011;2731;50.754;12.990;2022-07-23T17:14:42;13.73;;;10.57;;
5416;SDS011;2731;50.754;12.990;2022-07-23T17:17:07;11.88;;;8.75;;
5416;SDS011;2731;50.754;12.990;2022-07-23T17:19:32;9.82;;;8.88;;
5416;SDS011;2731;50.754;12.990;2022-07-23T17:21:57;10.13;;;9.13;;
5416;SDS011;2731;50.754;12.990;2022-07-23T17:24:23;10.67;;;9.67;;
5416;SDS011;2731;50.754;12.990;2022-07-23T17:26:48;9.90;;;8.83;;
5416;SDS011;2731;50.754;12.990;2022-07-23T17:29:14;9.75;;;8.75;;
5416;SDS011;2731;50.754;12.990;2022-07-23T17:31:39;11.43;;;10.18;;
5416;SDS011;2731;50.754;12.990;2022-07-23T17:34:04;10.20;;;9.20;;
5416;SDS011;2731;50.754;12.990;2022-07-23T17:36:29;9.75;;;8.85;;
5416;SDS011;2731;50.754;12.990;2022-07-23T17:38:58;9.80;;;8.80;;
5416;SDS011;2731;50.754;12.990;2022-07-23T17:41:23;10.32;;;9.23;;
5416;SDS011;2731;50.754;12.990;2022-07-23T17:43:49;10.65;;;8.82;;
5416;SDS011;2731;50.754;12.990;2022-07-23T17:46:14;9.73;;;8.73;;
5416;SDS011;2731;50.754;12.990;2022-07-23T17:48:39;10.53;;;8.60;;
5416;SDS011;2731;50.754;12.990;2022-07-23T17:51:06;12.23;;;9.55;;
5416;SDS011;2731;50.754;12.990;2022-07-23T17:53:32;9.85;;;8.85;;
5416;SDS011;2731;50.754;12.990;2022-07-23T17:55:57;10.70;;;8.90;;
5416;SDS011;2731;50.754;12.990;2022-07-23T17:58:23;9.50;;;8.43;;
5416;SDS011;2731;50.754;12.990;2022-07-23T18:00:49;11.00;;;9.57;;
5416;SDS011;2731;50.754;12.990;2022-07-23T18:03:14;11.00;;;9.05;;
5416;SDS011;2731;50.754;12.990;2022-07-23T18:05:39;9.47;;;8.10;;
5416;SDS011;2731;50.754;12.990;2022-07-23T18:08:06;11.13;;;8.25;;
5416;SDS011;2731;50.754;12.990;2022-07-23T18:10:31;10.50;;;8.32;;
5416;SDS011;2731;50.754;12.990;2022-07-23T18:12:57;10.57;;;8.25;;
5416;SDS011;2731;50.754;12.990;2022-07-23T18:15:22;8.90;;;8.00;;
5416;SDS011;2731;50.754;12.990;2022-07-23T18:17:50;8.95;;;7.68;;
5416;SDS011;2731;50.754;12.990;2022-07-23T18:20:15;9.15;;;8.18;;
5416;SDS011;2731;50.754;12.990;2022-07-23T18:22:40;10.32;;;8.00;;
5416;SDS011;2731;50.754;12.990;2022-07-23T18:25:07;10.07;;;7.85;;
5416;SDS011;2731;50.754;12.990;2022-07-23T18:27:32;10.05;;;8.98;;
5416;SDS011;2731;50.754;12.990;2022-07-23T18:29:57;9.25;;;8.35;;
5416;SDS011;2731;50.754;12.990;2022-07-23T18:32:23;10.50;;;9.18;;
5416;SDS011;2731;50.754;12.990;2022-07-23T18:34:48;15.98;;;9.15;;
5416;SDS011;2731;50.754;12.990;2022-07-23T18:37:13;10.37;;;9.27;;
5416;SDS011;2731;50.754;12.990;2022-07-23T18:39:39;12.23;;;11.00;;
5416;SDS011;2731;50.754;12.990;2022-07-23T18:42:04;13.00;;;11.63;;
5416;SDS011;2731;50.754;12.990;2022-07-23T18:44:30;12.60;;;11.20;;
5416;SDS011;2731;50.754;12.990;2022-07-23T18:46:55;14.10;;;12.45;;
5416;SDS011;2731;50.754;12.990;2022-07-23T18:49:20;14.77;;;13.13;;
5416;SDS011;2731;50.754;12.990;2022-07-23T18:51:46;20.65;;;16.08;;
5416;SDS011;2731;50.754;12.990;2022-07-23T18:54:11;20.93;;;18.67;;
5416;SDS011;2731;50.754;12.990;2022-07-23T18:56:38;32.28;;;26.23;;
5416;SDS011;2731;50.754;12.990;2022-07-23T18:59:03;42.83;;;34.07;;
5416;SDS011;2731;50.754;12.990;2022-07-23T19:01:29;24.08;;;19.23;;
5416;SDS011;2731;50.754;12.990;2022-07-23T19:03:55;21.02;;;15.75;;
5416;SDS011;2731;50.754;12.990;2022-07-23T19:06:20;15.75;;;13.48;;
5416;SDS011;2731;50.754;12.990;2022-07-23T19:08:45;17.63;;;13.80;;
5416;SDS011;2731;50.754;12.990;2022-07-23T19:11:11;25.87;;;14.97;;
5416;SDS011;2731;50.754;12.990;2022-07-23T19:13:36;16.20;;;14.50;;
5416;SDS011;2731;50.754;12.990;2022-07-23T19:16:01;23.70;;;18.85;;
5416;SDS011;2731;50.754;12.990;2022-07-23T19:18:29;28.33;;;23.83;;
5416;SDS011;2731;50.754;12.990;2022-07-23T19:20:55;21.25;;;18.52;;
5416;SDS011;2731;50.754;12.990;2022-07-23T19:23:20;17.80;;;14.67;;
5416;SDS011;2731;50.754;12.990;2022-07-23T19:25:45;15.63;;;13.90;;
5416;SDS011;2731;50.754;12.990;2022-07-23T19:28:11;15.73;;;13.57;;
5416;SDS011;2731;50.754;12.990;2022-07-23T19:30:37;15.20;;;13.35;;
5416;SDS011;2731;50.754;12.990;2022-07-23T19:33:02;16.33;;;13.32;;
5416;SDS011;2731;50.754;12.990;2022-07-23T19:35:28;15.43;;;13.82;;
5416;SDS011;2731;50.754;12.990;2022-07-23T19:37:53;17.35;;;14.48;;
5416;SDS011;2731;50.754;12.990;2022-07-23T19:40:18;14.97;;;13.33;;
5416;SDS011;2731;50.754;12.990;2022-07-23T19:42:44;14.65;;;12.95;;
5416;SDS011;2731;50.754;12.990;2022-07-23T19:45:10;15.30;;;13.70;;
5416;SDS011;2731;50.754;12.990;2022-07-23T19:47:35;16.23;;;13.65;;
5416;SDS011;2731;50.754;12.990;2022-07-23T19:50:01;15.52;;;13.75;;
5416;SDS011;2731;50.754;12.990;2022-07-23T19:52:26;15.40;;;13.15;;
5416;SDS011;2731;50.754;12.990;2022-07-23T19:54:51;17.40;;;14.68;;
5416;SDS011;2731;50.754;12.990;2022-07-23T19:57:17;19.60;;;16.20;;
5416;SDS011;2731;50.754;12.990;2022-07-23T19:59:42;21.47;;;19.10;;
5416;SDS011;2731;50.754;12.990;2022-07-23T20:02:07;32.67;;;25.67;;
5416;SDS011;2731;50.754;12.990;2022-07-23T20:04:32;33.40;;;25.70;;
5416;SDS011;2731;50.754;12.990;2022-07-23T20:06:57;32.90;;;26.90;;
5416;SDS011;2731;50.754;12.990;2022-07-23T20:09:23;44.75;;;33.80;;
5416;SDS011;2731;50.754;12.990;2022-07-23T20:11:52;41.72;;;31.98;;
5416;SDS011;2731;50.754;12.990;2022-07-23T20:14:17;36.97;;;27.45;;
5416;SDS011;2731;50.754;12.990;2022-07-23T20:16:42;25.35;;;20.45;;
5416;SDS011;2731;50.754;12.990;2022-07-23T20:19:07;23.40;;;18.85;;
5416;SDS011;2731;50.754;12.990;2022-07-23T20:21:33;25.83;;;19.53;;
5416;SDS011;2731;50.754;12.990;2022-07-23T20:23:58;21.42;;;18.48;;
5416;SDS011;2731;50.754;12.990;2022-07-23T20:26:23;21.03;;;16.50;;
5416;SDS011;2731;50.754;12.990;2022-07-23T20:28:49;17.38;;;15.35;;
5416;SDS011;2731;50.754;12.990;2022-07-23T20:31:14;15.07;;;13.52;;
5416;SDS011;2731;50.754;12.990;2022-07-23T20:33:39;16.00;;;12.63;;
5416;SDS011;2731;50.754;12.990;2022-07-23T20:36:04;14.35;;;12.57;;
5416;SDS011;2731;50.754;12.990;2022-07-23T20:38:30;14.80;;;12.77;;
5416;SDS011;2731;50.754;12.990;2022-07-23T20:40:56;13.50;;;12.10;;
5416;SDS011;2731;50.754;12.990;2022-07-23T20:43:21;15.15;;;12.02;;
5416;SDS011;2731;50.754;12.990;2022-07-23T20:45:46;13.77;;;11.80;;
5416;SDS011;2731;50.754;12.990;2022-07-23T20:48:12;15.33;;;11.53;;
5416;SDS011;2731;50.754;12.990;2022-07-23T20:50:37;14.23;;;12.20;;
5416;SDS011;2731;50.754;12.990;2022-07-23T20:53:03;14.48;;;11.93;;
5416;SDS011;2731;50.754;12.990;2022-07-23T20:55:28;15.77;;;13.75;;
5416;SDS011;2731;50.754;12.990;2022-07-23T20:57:54;16.65;;;14.82;;
5416;SDS011;2731;50.754;12.990;2022-07-23T21:00:19;15.20;;;13.23;;
5416;SDS011;2731;50.754;12.990;2022-07-23T21:02:44;19.58;;;15.45;;
5416;SDS011;2731;50.754;12.990;2022-07-23T21:05:10;17.87;;;14.93;;
5416;SDS011;2731;50.754;12.990;2022-07-23T21:07:35;19.33;;;16.42;;
5416;SDS011;2731;50.754;12.990;2022-07-23T21:10:00;23.38;;;17.23;;
5416;SDS011;2731;50.754;12.990;2022-07-23T21:12:26;18.87;;;14.90;;
5416;SDS011;2731;50.754;12.990;2022-07-23T21:14:51;21.00;;;16.40;;
5416;SDS011;2731;50.754;12.990;2022-07-23T21:17:17;19.30;;;15.95;;
5416;SDS011;2731;50.754;12.990;2022-07-23T21:19:42;25.08;;;19.50;;
5416;SDS011;2731;50.754;12.990;2022-07-23T21:22:08;22.83;;;18.25;;
5416;SDS011;2731;50.754;12.990;2022-07-23T21:24:33;33.25;;;26.38;;
5416;SDS011;2731;50.754;12.990;2022-07-23T21:26:59;31.83;;;26.23;;
5416;SDS011;2731;50.754;12.990;2022-07-23T21:29:24;29.33;;;23.70;;
5416;SDS011;2731;50.754;12.990;2022-07-23T21:31:49;27.33;;;22.55;;